Time;durP1;ratioP1;P1;durP2;ratioP2;P2;SDS_P1;SDS_P2;PMS_P1;PMS_P2;Temp;Humidity;BMP_temperature;BMP_pressure;BME280_temperature;BME280_humidity;BME280_pressure;Samples;Min_cycle;Max_cycle;Signal;HPM_P1;HPM_P2
2023/11/02 00:02:22;;;;;;;3.08;1.90;;;17.90;55.00;;;;;;5100800;28;20047;-34
2023/11/02 00:04:49;;;;;;;3.20;1.90;;;17.80;55.00;;;;;;5095378;28;20645;-34
2023/11/02 00:07:15;;;;;;;;;;;17.90;55.00;;;;;;5103331;28;20040;-35
2023/11/02 00:09:41;;;;;;;2.38;2.13;;;17.80;55.00;;;;;;5102739;28;20367;-35
2023/11/02 00:12:11;;;;;;;4.05;2.05;;;17.80;55.10;;;;;;5104125;28;20031;-34
2023/11/02 00:14:43;;;;;;;2.83;2.10;;;17.70;55.00;;;;;;5092387;28;20039;-34
2023/11/02 00:17:33;;;;;;;3.80;1.95;;;17.70;55.10;;;;;;5100693;28;20032;-34
2023/11/02 00:20:01;;;;;;;4.15;2.28;;;17.70;55.10;;;;;;5098262;28;20028;-34
2023/11/02 00:22:27;;;;;;;3.35;2.20;;;17.70;55.20;;;;;;5095845;28;20449;-34
2023/11/02 00:24:54;;;;;;;2.05;1.70;;;17.70;55.20;;;;;;5100549;28;20039;-35
2023/11/02 00:27:20;;;;;;;2.95;2.13;;;17.60;55.20;;;;;;5094891;28;20047;-33
2023/11/02 00:29:51;;;;;;;2.65;1.98;;;17.60;55.20;;;;;;5093712;28;20056;-34
2023/11/02 00:32:19;;;;;;;4.43;2.42;;;17.60;55.30;;;;;;5086430;28;20029;-34
2023/11/02 00:34:46;;;;;;;2.78;2.20;;;17.50;55.30;;;;;;5096622;28;20036;-33
2023/11/02 00:37:12;;;;;;;;;;;17.50;55.40;;;;;;5103633;28;20047;-33
2023/11/02 00:39:39;;;;;;;4.03;2.60;;;17.50;55.50;;;;;;5089133;28;19947;-34
2023/11/02 00:42:06;;;;;;;3.75;3.05;;;17.50;55.60;;;;;;5103113;28;20032;-34
2023/11/02 00:44:36;;;;;;;4.82;2.60;;;17.50;55.50;;;;;;5086725;28;20817;-33
2023/11/02 00:47:04;;;;;;;3.35;2.65;;;17.40;55.60;;;;;;5096780;28;20044;-34
2023/11/02 00:49:35;;;;;;;;;;;17.40;55.60;;;;;;5094724;28;20051;-33
2023/11/02 00:52:03;;;;;;;4.72;3.70;;;17.40;55.60;;;;;;5093269;28;19915;-33
2023/11/02 00:54:45;;;;;;;4.25;3.70;;;17.30;55.70;;;;;;5100993;28;20040;-34
2023/11/02 00:57:13;;;;;;;5.45;3.88;;;17.30;55.70;;;;;;5099866;28;20020;-33
2023/11/02 00:59:39;;;;;;;;;;;17.30;55.90;;;;;;5089049;28;20504;-33
2023/11/02 01:02:08;;;;;;;7.25;5.25;;;17.30;56.40;;;;;;5103724;28;19918;-34
2023/11/02 01:04:44;;;;;;;7.55;5.55;;;17.30;56.50;;;;;;5091414;28;20045;-34
2023/11/02 01:07:13;;;;;;;8.43;6.20;;;17.20;55.90;;;;;;5093364;28;20055;-33
2023/11/02 01:09:46;;;;;;;7.32;6.40;;;17.20;55.90;;;;;;5095732;28;20084;-33
2023/11/02 01:12:35;;;;;;;8.13;7.18;;;17.20;56.00;;;;;;5102996;28;20036;-33
2023/11/02 01:15:03;;;;;;;9.35;7.45;;;17.20;56.10;;;;;;5097891;28;20039;-34
2023/11/02 01:17:34;;;;;;;9.82;7.82;;;17.10;56.00;;;;;;5094078;28;20032;-34
2023/11/02 01:20:11;;;;;;;10.35;8.10;;;17.10;56.10;;;;;;5081855;28;20036;-33
2023/11/02 01:22:54;;;;;;;10.18;8.85;;;17.10;56.10;;;;;;5101699;28;20021;-34
2023/11/02 01:25:24;;;;;;;10.40;9.30;;;17.00;56.10;;;;;;5085354;28;20039;-34
2023/11/02 01:27:53;;;;;;;11.32;10.13;;;17.00;56.10;;;;;;5102639;28;20119;-34
2023/11/02 01:30:22;;;;;;;11.88;10.13;;;17.00;56.30;;;;;;5101861;28;20024;-34
2023/11/02 01:32:49;;;;;;;11.75;10.52;;;17.00;56.20;;;;;;5095263;28;20032;-34
2023/11/02 01:35:45;;;;;;;13.95;11.05;;;16.90;56.30;;;;;;5102165;28;20035;-34
2023/11/02 01:38:15;;;;;;;13.32;11.05;;;16.90;56.30;;;;;;5084811;28;20036;-33
2023/11/02 01:41:09;;;;;;;14.15;12.18;;;16.90;56.40;;;;;;5101785;28;20066;-34
2023/11/02 01:44:00;;;;;;;14.50;13.00;;;16.90;56.30;;;;;;5093517;28;20064;-34
2023/11/02 01:46:53;;;;;;;16.23;14.48;;;16.90;56.50;;;;;;5084726;28;20082;-34
2023/11/02 01:49:56;;;;;;;16.40;14.38;;;17.00;56.80;;;;;;5085551;28;20051;-34
2023/11/02 01:52:54;;;;;;;16.98;15.13;;;17.00;56.70;;;;;;5073005;28;20052;-34
2023/11/02 01:55:42;;;;;;;16.52;14.73;;;16.90;56.70;;;;;;5083774;28;20033;-34
2023/11/02 01:58:32;;;;;;;20.30;15.48;;;16.90;56.70;;;;;;5091530;28;20024;-34
2023/11/02 02:01:32;;;;;;;26.13;15.93;;;16.90;56.70;;;;;;5085843;28;20059;-34
2023/11/02 02:04:08;;;;;;;22.35;15.35;;;16.80;56.70;;;;;;5088033;28;20020;-33
2023/11/02 02:07:11;;;;;;;23.75;16.00;;;16.90;57.00;;;;;;5083298;28;20724;-34
2023/11/02 02:09:48;;;;;;;25.67;16.70;;;16.90;57.00;;;;;;5039936;28;20029;-34
2023/11/02 02:12:46;;;;;;;25.88;16.17;;;16.90;56.90;;;;;;5023820;28;20514;-34
2023/11/02 02:15:26;;;;;;;25.80;16.33;;;16.90;57.00;;;;;;5036633;28;20046;-34
2023/11/02 02:18:06;;;;;;;27.73;16.38;;;16.80;57.50;;;;;;5034455;28;20038;-34
2023/11/02 02:20:33;;;;;;;19.08;15.35;;;16.80;57.00;;;;;;5040290;28;20062;-34
2023/11/02 02:23:03;;;;;;;18.52;15.15;;;16.80;57.20;;;;;;5023628;28;20032;-34
2023/11/02 02:25:36;;;;;;;19.42;14.85;;;16.90;57.40;;;;;;5023659;28;20118;-34
2023/11/02 02:28:27;;;;;;;21.08;15.73;;;16.90;57.20;;;;;;5023984;28;20095;-33
2023/11/02 02:30:58;;;;;;;19.75;15.52;;;16.90;57.20;;;;;;5040222;28;20497;-34
2023/11/02 02:33:34;;;;;;;18.83;15.13;;;16.80;57.10;;;;;;5039458;28;20072;-34
2023/11/02 02:36:06;;;;;;;18.90;15.15;;;16.80;57.10;;;;;;5039955;28;20037;-34
2023/11/02 02:38:46;;;;;;;17.58;15.10;;;16.80;57.10;;;;;;5039994;28;20060;-34
2023/11/02 02:41:17;;;;;;;17.10;13.68;;;16.70;57.20;;;;;;5024463;28;20034;-33
2023/11/02 02:43:45;;;;;;;18.17;14.15;;;16.80;57.40;;;;;;5064042;28;20055;-33
2023/11/02 02:46:11;;;;;;;16.73;14.65;;;16.90;57.60;;;;;;5091181;28;20044;-33
2023/11/02 02:48:38;;;;;;;16.27;14.10;;;16.80;57.40;;;;;;5083792;28;20025;-33
2023/11/02 02:51:07;;;;;;;16.85;13.40;;;16.90;57.30;;;;;;5082320;28;20031;-34
2023/11/02 02:53:33;;;;;;;17.40;14.00;;;16.80;57.30;;;;;;5090117;28;20058;-34
2023/11/02 02:56:07;;;;;;;15.38;13.55;;;16.70;57.30;;;;;;5091399;28;20024;-34
2023/11/02 02:59:02;;;;;;;14.55;12.95;;;16.80;57.40;;;;;;5086847;28;20113;-34
2023/11/02 03:01:35;;;;;;;13.40;12.00;;;16.90;57.70;;;;;;5082898;28;20032;-34
2023/11/02 03:04:22;;;;;;;13.40;12.00;;;16.90;57.60;;;;;;5089597;28;20024;-35
2023/11/02 03:06:59;;;;;;;13.77;12.32;;;16.90;57.60;;;;;;5091558;28;20522;-34
2023/11/02 03:09:32;;;;;;;15.00;13.10;;;16.80;57.50;;;;;;5085032;28;20095;-34
2023/11/02 03:12:03;;;;;;;14.15;12.65;;;16.80;57.50;;;;;;5087406;28;20032;-34
2023/11/02 03:14:30;;;;;;;13.52;12.10;;;16.70;57.40;;;;;;5085310;28;20523;-34
2023/11/02 03:17:13;;;;;;;13.45;11.98;;;16.70;57.50;;;;;;5083614;28;20041;-34
2023/11/02 03:19:43;;;;;;;13.57;11.63;;;16.80;57.70;;;;;;5082966;28;20055;-34
2023/11/02 03:22:12;;;;;;;13.23;11.40;;;16.80;57.80;;;;;;5097638;28;20028;-34
2023/11/02 03:24:45;;;;;;;12.55;10.75;;;16.90;57.70;;;;;;5100073;28;20104;-34
2023/11/02 03:27:11;;;;;;;12.30;11.00;;;16.80;57.60;;;;;;5085052;28;20037;-34
2023/11/02 03:29:48;;;;;;;13.02;11.55;;;16.80;57.60;;;;;;5095751;28;20036;-34
2023/11/02 03:32:22;;;;;;;12.60;11.30;;;16.70;57.60;;;;;;5100159;28;20479;-33
2023/11/02 03:35:01;;;;;;;11.93;10.73;;;16.70;57.60;;;;;;5091005;28;20028;-33
2023/11/02 03:37:40;;;;;;;11.85;10.55;;;16.80;57.80;;;;;;5084539;28;20519;-33
2023/11/02 03:40:12;;;;;;;11.45;10.25;;;16.90;58.00;;;;;;5093587;28;20028;-33
2023/11/02 03:43:01;;;;;;;11.88;10.63;;;16.80;57.80;;;;;;5100264;28;20024;-34
2023/11/02 03:45:32;;;;;;;11.25;10.02;;;16.80;57.70;;;;;;5094099;28;20467;-34
2023/11/02 03:48:13;;;;;;;11.02;9.85;;;16.80;57.70;;;;;;5104405;28;20031;-33
2023/11/02 03:51:01;;;;;;;13.35;10.80;;;16.70;57.70;;;;;;5087645;28;20641;-34
2023/11/02 03:53:34;;;;;;;10.65;9.20;;;16.70;57.80;;;;;;5094287;28;20035;-38
2023/11/02 03:56:15;;;;;;;10.82;9.52;;;16.90;58.20;;;;;;5094725;28;20028;-33
2023/11/02 03:59:11;;;;;;;10.82;9.65;;;16.90;58.00;;;;;;5099423;28;20078;-34
2023/11/02 04:01:37;;;;;;;10.45;9.35;;;16.90;57.90;;;;;;5089269;28;20029;-34
2023/11/02 04:04:06;;;;;;;10.07;9.07;;;16.80;57.80;;;;;;5104952;28;20024;-34
2023/11/02 04:07:23;;;;;;;11.75;10.07;;;16.80;57.80;;;;;;5087043;28;20051;-34
2023/11/02 04:09:55;;;;;;;9.73;8.73;;;16.70;57.90;;;;;;5042312;28;20120;-33
2023/11/02 04:12:34;;;;;;;10.30;8.68;;;16.80;58.00;;;;;;5025951;28;20041;-34
2023/11/02 04:15:01;;;;;;;9.00;8.10;;;16.90;58.10;;;;;;5026131;28;20063;-34
2023/11/02 04:17:28;;;;;;;10.05;8.75;;;16.80;57.90;;;;;;5042239;28;20100;-33
2023/11/02 04:19:54;;;;;;;9.00;7.97;;;16.90;57.90;;;;;;5022350;28;20038;-33
2023/11/02 04:22:20;;;;;;;9.23;8.27;;;16.80;57.90;;;;;;5039681;28;20056;-34
2023/11/02 04:24:47;;;;;;;8.80;7.65;;;16.80;57.90;;;;;;5025552;28;20120;-34
2023/11/02 04:27:13;;;;;;;8.02;7.05;;;16.80;57.90;;;;;;5041946;28;20071;-34
2023/11/02 04:29:39;;;;;;;8.68;7.78;;;16.90;58.10;;;;;;5041865;28;20052;-34
2023/11/02 04:32:05;;;;;;;8.85;7.78;;;16.90;58.00;;;;;;5042093;28;20041;-34
2023/11/02 04:34:31;;;;;;;9.32;8.02;;;16.90;57.90;;;;;;5041771;28;20472;-34
2023/11/02 04:36:58;;;;;;;8.30;7.40;;;16.80;57.80;;;;;;5042078;28;20134;-34
2023/11/02 04:39:24;;;;;;;7.65;6.57;;;16.80;57.90;;;;;;5025139;28;20048;-34
2023/11/02 04:41:51;;;;;;;6.82;6.10;;;16.70;57.90;;;;;;5042044;28;20039;-34
2023/11/02 04:44:17;;;;;;;6.35;5.75;;;16.80;58.00;;;;;;5051422;28;20104;-34
2023/11/02 04:46:43;;;;;;;6.30;5.70;;;16.90;58.10;;;;;;5102897;28;20493;-34
2023/11/02 04:49:09;;;;;;;7.32;6.43;;;16.90;57.90;;;;;;5103231;28;20036;-34
2023/11/02 04:51:36;;;;;;;6.97;6.28;;;16.90;58.00;;;;;;5101922;28;20040;-34
2023/11/02 04:54:02;;;;;;;6.15;5.55;;;16.80;57.90;;;;;;5102906;28;20016;-33
2023/11/02 04:56:28;;;;;;;6.73;5.33;;;16.70;57.90;;;;;;5101374;28;20032;-34
2023/11/02 04:58:54;;;;;;;5.20;4.70;;;16.80;58.00;;;;;;5102862;28;20036;-33
2023/11/02 05:01:21;;;;;;;5.20;4.70;;;16.80;58.00;;;;;;5102443;28;20020;-33
2023/11/02 05:03:47;;;;;;;5.03;4.50;;;16.90;58.10;;;;;;5103898;28;20050;-33
2023/11/02 05:06:16;;;;;;;4.68;4.28;;;16.80;57.90;;;;;;5095299;28;20806;-34
2023/11/02 05:09:02;;;;;;;5.32;4.43;;;16.80;57.90;;;;;;5102187;28;20039;-33
2023/11/02 05:11:29;;;;;;;4.88;4.38;;;16.80;57.90;;;;;;5061302;28;20087;-34
2023/11/02 05:13:55;;;;;;;4.30;3.90;;;16.80;58.00;;;;;;5061395;28;20063;-33
2023/11/02 05:16:21;;;;;;;4.57;3.88;;;16.80;58.70;;;;;;5061117;28;20116;-33
2023/11/02 05:18:47;;;;;;;4.70;3.60;;;16.90;58.20;;;;;;5060931;28;20147;-34
2023/11/02 05:21:13;;;;;;;4.57;3.78;;;16.90;58.00;;;;;;5061154;28;20050;-33
2023/11/02 05:23:39;;;;;;;5.07;4.00;;;16.80;58.40;;;;;;5060678;28;20029;-34
2023/11/02 05:26:06;;;;;;;4.55;4.15;;;16.80;58.00;;;;;;5060014;28;20036;-33
2023/11/02 05:28:32;;;;;;;3.50;3.20;;;16.70;58.00;;;;;;5060490;28;20104;-33
2023/11/02 05:30:58;;;;;;;4.20;3.80;;;16.80;58.20;;;;;;5059472;28;20186;-33
2023/11/02 05:33:25;;;;;;;3.95;3.35;;;16.90;58.30;;;;;;5060680;28;20095;-34
2023/11/02 05:35:51;;;;;;;3.70;3.22;;;16.90;58.20;;;;;;5061088;28;20036;-34
2023/11/02 05:38:21;;;;;;;3.67;3.20;;;16.90;58.10;;;;;;5059790;28;20032;-34
2023/11/02 05:40:47;;;;;;;5.40;3.38;;;16.80;58.00;;;;;;5060996;28;20043;-34
2023/11/02 05:43:13;;;;;;;3.55;3.25;;;16.80;58.00;;;;;;5060230;28;20079;-38
2023/11/02 05:45:39;;;;;;;3.03;2.72;;;16.80;58.10;;;;;;5061030;28;20072;-34
2023/11/02 05:48:05;;;;;;;2.90;2.63;;;16.90;58.20;;;;;;5073809;28;20036;-34
2023/11/02 05:50:32;;;;;;;3.05;2.75;;;17.00;58.30;;;;;;5100857;28;20046;-34
2023/11/02 05:52:58;;;;;;;4.10;2.63;;;16.90;58.10;;;;;;5102513;28;20078;-34
2023/11/02 05:55:24;;;;;;;3.00;2.70;;;16.90;58.00;;;;;;5096557;28;20031;-34
2023/11/02 05:57:51;;;;;;;4.00;2.90;;;16.80;58.00;;;;;;5095508;28;20035;-34
2023/11/02 06:00:17;;;;;;;3.25;2.95;;;16.80;58.10;;;;;;5093918;28;20028;-34
2023/11/02 06:02:43;;;;;;;2.60;2.40;;;16.80;58.20;;;;;;5101911;28;20142;-34
2023/11/02 06:05:09;;;;;;;3.20;2.72;;;16.90;58.20;;;;;;5095552;28;20024;-34
2023/11/02 06:07:36;;;;;;;2.95;2.40;;;17.00;58.20;;;;;;5092635;28;20034;-34
2023/11/02 06:10:03;;;;;;;2.90;2.60;;;16.90;58.10;;;;;;5101365;28;20075;-34
2023/11/02 06:12:30;;;;;;;2.95;2.35;;;16.80;58.10;;;;;;5088183;28;20056;-34
2023/11/02 06:14:56;;;;;;;3.35;2.30;;;16.80;58.10;;;;;;5101378;28;20035;-34
2023/11/02 06:17:23;;;;;;;2.53;2.13;;;16.80;58.20;;;;;;5100966;28;20113;-34
2023/11/02 06:19:49;;;;;;;2.03;1.65;;;16.90;58.30;;;;;;5096638;28;20346;-34
2023/11/02 06:22:15;;;;;;;2.67;2.22;;;17.00;58.30;;;;;;5088838;28;20037;-34
2023/11/02 06:24:42;;;;;;;2.63;2.17;;;16.90;58.20;;;;;;5093527;28;20101;-33
2023/11/02 06:27:09;;;;;;;2.50;2.30;;;16.90;58.20;;;;;;5089684;28;20032;-33
2023/11/02 06:29:35;;;;;;;2.42;2.10;;;16.80;58.20;;;;;;5092698;28;20044;-33
2023/11/02 06:32:02;;;;;;;2.92;2.10;;;16.80;58.30;;;;;;5094718;28;20124;-33
2023/11/02 06:34:28;;;;;;;2.00;1.80;;;16.90;58.30;;;;;;5099327;28;20028;-33
2023/11/02 06:36:54;;;;;;;2.25;1.80;;;17.00;58.30;;;;;;5097282;28;20020;-33
2023/11/02 06:39:20;;;;;;;2.03;1.80;;;17.00;58.20;;;;;;5098161;28;20039;-33
2023/11/02 06:41:49;;;;;;;2.60;1.90;;;17.00;58.20;;;;;;5093419;28;20140;-33
2023/11/02 06:44:16;;;;;;;1.77;1.67;;;16.90;58.10;;;;;;5093759;28;20056;-33
2023/11/02 06:46:46;;;;;;;2.47;1.95;;;16.80;58.20;;;;;;5094157;28;20052;-34
2023/11/02 06:49:12;;;;;;;1.80;1.50;;;16.80;58.20;;;;;;5094782;28;20098;-33
2023/11/02 06:51:38;;;;;;;2.10;1.60;;;16.90;58.30;;;;;;5093729;28;20094;-33
2023/11/02 06:54:05;;;;;;;1.92;1.60;;;17.00;58.30;;;;;;5094365;28;20024;-33
2023/11/02 06:56:31;;;;;;;2.00;1.70;;;17.00;58.10;;;;;;5097711;28;20040;-33
2023/11/02 06:58:57;;;;;;;1.95;1.65;;;16.90;58.10;;;;;;5096636;28;20029;-33
2023/11/02 07:01:23;;;;;;;2.80;1.90;;;16.90;58.10;;;;;;5091385;28;20033;-34
2023/11/02 07:03:49;;;;;;;2.80;1.70;;;16.80;58.20;;;;;;5092253;28;20024;-34
2023/11/02 07:06:15;;;;;;;1.70;1.42;;;16.80;58.20;;;;;;5093304;28;20489;-34
2023/11/02 07:08:41;;;;;;;1.50;1.40;;;17.00;58.20;;;;;;5093964;28;20036;-34
2023/11/02 07:11:08;;;;;;;1.65;1.52;;;17.00;58.10;;;;;;5087945;28;20028;-34
2023/11/02 07:13:34;;;;;;;1.90;1.50;;;17.00;58.10;;;;;;5094005;28;20032;-34
2023/11/02 07:16:01;;;;;;;1.92;1.40;;;16.90;58.10;;;;;;5095517;28;20027;-34
2023/11/02 07:18:27;;;;;;;1.80;1.70;;;16.90;58.10;;;;;;5099095;28;20028;-33
2023/11/02 07:20:53;;;;;;;1.95;1.63;;;16.80;58.10;;;;;;5097740;28;20268;-33
2023/11/02 07:23:19;;;;;;;2.05;1.60;;;16.80;58.60;;;;;;5098035;28;20028;-33
2023/11/02 07:25:46;;;;;;;1.95;1.60;;;16.90;58.20;;;;;;5096994;28;20558;-33
2023/11/02 07:28:12;;;;;;;1.73;1.50;;;17.00;58.20;;;;;;5097281;28;20040;-33
2023/11/02 07:30:38;;;;;;;1.90;1.60;;;16.90;58.10;;;;;;5095387;28;20289;-33
2023/11/02 07:33:04;;;;;;;1.80;1.50;;;16.90;58.00;;;;;;5086752;28;20031;-34
2023/11/02 07:35:31;;;;;;;1.70;1.33;;;16.80;58.00;;;;;;5103164;28;20042;-33
2023/11/02 07:37:58;;;;;;;1.60;1.50;;;16.80;58.10;;;;;;5096826;28;20054;-33
2023/11/02 07:40:24;;;;;;;1.60;1.50;;;16.90;58.20;;;;;;5096257;28;20036;-33
2023/11/02 07:43:10;;;;;;;2.00;1.70;;;17.00;58.20;;;;;;5099002;28;20109;-32
2023/11/02 07:45:36;;;;;;;1.85;1.38;;;17.00;58.10;;;;;;5039802;28;20033;-34
2023/11/02 07:48:03;;;;;;;2.05;1.63;;;16.90;58.00;;;;;;5037862;28;20445;-33
2023/11/02 07:50:29;;;;;;;1.80;1.58;;;16.80;58.00;;;;;;5042359;28;20037;-34
2023/11/02 07:52:55;;;;;;;2.08;1.63;;;16.80;58.10;;;;;;5043052;28;20033;-33
2023/11/02 07:55:21;;;;;;;1.60;1.30;;;16.90;58.10;;;;;;5042974;28;20041;-33
2023/11/02 07:57:48;;;;;;;1.67;1.50;;;17.00;58.10;;;;;;5042676;28;20528;-33
2023/11/02 08:00:18;;;;;;;2.10;1.52;;;17.00;58.00;;;;;;5034868;28;20075;-33
2023/11/02 08:02:45;;;;;;;2.05;1.40;;;16.90;58.00;;;;;;5038582;28;20065;-33
2023/11/02 08:05:11;;;;;;;1.70;1.60;;;16.90;58.10;;;;;;5031532;28;20033;-33
2023/11/02 08:07:37;;;;;;;1.77;1.65;;;16.80;58.10;;;;;;5041642;28;20084;-34
2023/11/02 08:10:03;;;;;;;1.80;1.50;;;16.90;58.10;;;;;;5034820;28;20087;-33
2023/11/02 08:12:32;;;;;;;1.58;1.42;;;17.00;58.10;;;;;;5042713;28;20037;-33
2023/11/02 08:14:58;;;;;;;1.85;1.60;;;17.00;58.10;;;;;;5036995;28;20029;-33
2023/11/02 08:17:27;;;;;;;2.00;1.55;;;17.00;58.00;;;;;;5039964;28;20041;-33
2023/11/02 08:19:55;;;;;;;1.83;1.60;;;16.90;58.00;;;;;;5034724;28;20097;-33
2023/11/02 08:22:22;;;;;;;2.20;1.75;;;16.90;58.10;;;;;;5064930;28;20070;-33
2023/11/02 08:24:52;;;;;;;1.70;1.50;;;16.90;58.10;;;;;;5093875;28;20029;-33
2023/11/02 08:27:18;;;;;;;3.60;1.73;;;16.90;58.10;;;;;;5096564;28;20051;-33
2023/11/02 08:29:45;;;;;;;2.45;1.90;;;17.00;58.10;;;;;;5094116;28;20020;-33
2023/11/02 08:32:11;;;;;;;1.85;1.63;;;17.00;58.10;;;;;;5098275;28;20072;-33
2023/11/02 08:34:41;;;;;;;2.00;1.58;;;16.90;58.00;;;;;;5103202;28;20119;-33
2023/11/02 08:37:09;;;;;;;3.80;2.22;;;16.90;58.10;;;;;;5089811;28;20032;-33
2023/11/02 08:39:38;;;;;;;2.70;1.92;;;16.80;58.10;;;;;;5099836;28;20029;-34
2023/11/02 08:42:04;;;;;;;2.53;1.90;;;16.90;58.20;;;;;;5089678;28;20429;-34
2023/11/02 08:44:30;;;;;;;2.67;1.75;;;17.00;58.20;;;;;;5094872;28;20052;-33
2023/11/02 08:46:56;;;;;;;2.40;2.17;;;17.00;58.10;;;;;;5085254;28;20641;-33
2023/11/02 08:49:22;;;;;;;3.10;2.15;;;17.00;58.10;;;;;;5101555;28;20055;-33
2023/11/02 08:51:48;;;;;;;3.17;2.20;;;16.90;58.00;;;;;;5104093;28;20032;-33
2023/11/02 08:54:15;;;;;;;2.38;2.00;;;16.80;58.00;;;;;;5103500;28;20041;-33
2023/11/02 08:56:42;;;;;;;3.53;2.28;;;16.90;58.10;;;;;;5092562;28;20884;-33
2023/11/02 08:59:08;;;;;;;2.70;2.28;;;17.00;58.20;;;;;;5096480;28;20032;-33
2023/11/02 09:01:35;;;;;;;2.40;2.00;;;17.00;58.10;;;;;;5086485;28;20072;-33
2023/11/02 09:04:01;;;;;;;2.75;2.20;;;17.00;58.00;;;;;;5098942;28;20087;-32
2023/11/02 09:06:27;;;;;;;2.72;2.20;;;17.00;58.00;;;;;;5086632;28;20370;-33
2023/11/02 09:08:56;;;;;;;2.30;2.05;;;16.90;58.00;;;;;;5096575;28;20028;-33
2023/11/02 09:11:22;;;;;;;2.88;1.98;;;16.90;58.10;;;;;;5095229;28;20024;-34
2023/11/02 09:13:49;;;;;;;2.92;2.00;;;16.90;58.10;;;;;;5098129;28;20024;-33
2023/11/02 09:16:15;;;;;;;2.67;1.90;;;17.00;58.20;;;;;;5084873;28;20084;-34
2023/11/02 09:18:41;;;;;;;2.45;1.88;;;17.10;58.20;;;;;;5093092;28;20460;-34
2023/11/02 09:21:07;;;;;;;2.83;2.00;;;17.00;58.00;;;;;;5097335;28;20035;-34
2023/11/02 09:23:34;;;;;;;2.67;1.90;;;17.00;58.00;;;;;;5101491;28;20040;-34
2023/11/02 09:26:05;;;;;;;2.28;1.80;;;16.90;58.00;;;;;;5102925;28;20047;-34
2023/11/02 09:28:33;;;;;;;2.65;1.92;;;16.90;58.00;;;;;;5100519;28;20028;-34
2023/11/02 09:30:59;;;;;;;2.50;1.92;;;17.00;58.10;;;;;;5096993;28;20020;-34
2023/11/02 09:33:25;;;;;;;1.55;1.38;;;17.00;58.10;;;;;;5100259;28;20058;-34
2023/11/02 09:35:52;;;;;;;2.67;2.00;;;17.00;58.00;;;;;;5103024;28;20028;-34
2023/11/02 09:38:19;;;;;;;2.10;1.52;;;17.00;58.00;;;;;;5094152;28;20028;-34
2023/11/02 09:40:45;;;;;;;2.47;1.77;;;16.90;58.00;;;;;;5099689;28;20039;-34
2023/11/02 09:43:11;;;;;;;2.58;1.80;;;16.90;58.10;;;;;;5084374;28;20406;-33
2023/11/02 09:45:37;;;;;;;1.92;1.60;;;17.00;58.10;;;;;;5092186;28;20052;-33
2023/11/02 09:48:04;;;;;;;2.10;1.80;;;17.10;58.10;;;;;;5090314;28;20061;-33
2023/11/02 09:50:30;;;;;;;1.80;1.40;;;17.00;58.00;;;;;;5100033;28;20031;-33
2023/11/02 09:52:57;;;;;;;2.53;1.60;;;17.00;58.00;;;;;;5101676;28;20405;-34
2023/11/02 09:55:23;;;;;;;1.38;1.05;;;16.90;58.00;;;;;;5096053;28;20036;-34
2023/11/02 09:57:50;;;;;;;2.03;1.50;;;16.80;58.00;;;;;;5094836;28;20039;-34
2023/11/02 10:00:20;;;;;;;1.90;1.65;;;16.90;58.10;;;;;;5101563;28;20602;-34
2023/11/02 10:02:49;;;;;;;1.95;1.60;;;17.00;58.00;;;;;;5102194;28;20552;-34
2023/11/02 10:05:17;;;;;;;1.60;1.50;;;17.10;58.00;;;;;;5100044;28;20518;-34
2023/11/02 10:07:43;;;;;;;2.22;1.70;;;17.00;57.90;;;;;;5101321;28;20053;-34
2023/11/02 10:10:10;;;;;;;2.05;1.60;;;17.00;57.90;;;;;;5101819;28;20697;-34
2023/11/02 10:12:37;;;;;;;2.15;1.77;;;16.90;58.00;;;;;;5099294;28;20029;-34
2023/11/02 10:15:04;;;;;;;2.03;1.70;;;16.80;58.00;;;;;;5102011;28;20028;-33
2023/11/02 10:17:37;;;;;;;1.83;1.38;;;16.90;58.10;;;;;;5091799;28;20052;-33
2023/11/02 10:20:13;;;;;;;3.10;1.50;;;17.00;58.10;;;;;;5096056;28;20076;-33
2023/11/02 10:22:40;;;;;;;1.50;1.38;;;17.00;58.00;;;;;;5100155;28;20025;-33
2023/11/02 10:25:07;;;;;;;2.05;1.70;;;17.00;58.00;;;;;;5092713;28;20023;-34
2023/11/02 10:27:35;;;;;;;1.73;1.42;;;16.90;57.90;;;;;;5085935;28;20551;-33
2023/11/02 10:30:02;;;;;;;2.22;1.70;;;16.90;58.00;;;;;;5095790;28;20033;-33
2023/11/02 10:32:28;;;;;;;2.15;1.50;;;16.90;58.00;;;;;;5081911;28;20092;-33
2023/11/02 10:34:54;;;;;;;1.13;1.02;;;17.00;58.10;;;;;;5089711;28;20558;-33
2023/11/02 10:37:31;;;;;;;1.60;1.20;;;17.10;58.10;;;;;;5089673;28;20028;-33
2023/11/02 10:39:58;;;;;;;1.77;1.40;;;17.00;57.90;;;;;;5083960;28;20142;-33
2023/11/02 10:42:26;;;;;;;1.90;1.60;;;16.90;57.90;;;;;;5089872;28;20066;-34
2023/11/02 10:44:52;;;;;;;1.35;1.25;;;16.90;58.00;;;;;;5082722;28;20056;-33
2023/11/02 10:47:21;;;;;;;2.40;1.20;;;16.90;58.10;;;;;;5083824;28;20067;-34
2023/11/02 10:49:52;;;;;;;1.50;1.23;;;17.00;58.10;;;;;;5094653;28;20056;-33
2023/11/02 10:52:20;;;;;;;1.55;1.17;;;17.10;58.20;;;;;;5081356;28;20032;-34
2023/11/02 10:55:08;;;;;;;1.48;1.20;;;17.10;58.00;;;;;;5090578;28;20027;-34
2023/11/02 10:57:34;;;;;;;2.10;1.40;;;17.00;57.90;;;;;;5105276;28;20052;-34
2023/11/02 11:00:00;;;;;;;1.38;1.17;;;16.90;58.00;;;;;;5096067;28;20028;-34
2023/11/02 11:02:26;;;;;;;1.42;1.15;;;16.90;58.10;;;;;;5088931;28;20059;-34
2023/11/02 11:04:52;;;;;;;1.23;1.08;;;16.90;58.10;;;;;;5108266;28;20028;-33
2023/11/02 11:07:18;;;;;;;1.52;1.20;;;17.10;58.00;;;;;;5099595;28;20118;-34
2023/11/02 11:09:45;;;;;;;1.25;1.08;;;17.10;58.00;;;;;;5088790;28;20032;-34
2023/11/02 11:12:12;;;;;;;1.50;1.20;;;17.10;58.00;;;;;;5101532;28;20027;-34
2023/11/02 11:14:39;;;;;;;1.87;1.40;;;17.00;57.90;;;;;;5102729;28;20137;-34
2023/11/02 11:17:05;;;;;;;1.38;1.02;;;16.90;58.00;;;;;;5096857;28;20099;-34
2023/11/02 11:19:32;;;;;;;1.60;1.20;;;16.90;58.00;;;;;;5105494;28;20039;-34
2023/11/02 11:22:03;;;;;;;1.23;1.10;;;17.00;58.10;;;;;;5092619;28;20860;-34
2023/11/02 11:24:33;;;;;;;1.63;1.35;;;17.10;58.10;;;;;;5097762;28;20039;-34
2023/11/02 11:26:59;;;;;;;1.30;1.10;;;17.00;57.90;;;;;;5104002;28;20100;-34
2023/11/02 11:29:35;;;;;;;1.60;1.30;;;17.00;57.90;;;;;;5092362;28;20578;-34
2023/11/02 11:32:03;;;;;;;1.05;0.95;;;16.90;58.00;;;;;;5094955;28;20033;-34
2023/11/02 11:35:08;;;;;;;;;;;16.90;58.00;;;;;;5098577;28;20023;-34
2023/11/02 11:37:57;;;;;;;1.17;1.08;;;17.00;58.10;;;;;;5044930;28;20022;-34
2023/11/02 11:40:29;;;;;;;;;;;17.10;58.00;;;;;;5046363;28;20099;-34
2023/11/02 11:46:01;;;;;;;2.58;1.30;;;17.00;57.90;;;;;;4967801;29;20071;-34
2023/11/02 11:48:33;;;;;;;1.42;1.10;;;16.90;58.00;;;;;;4967149;29;20043;-33
2023/11/02 11:50:59;;;;;;;1.75;1.10;;;17.00;58.00;;;;;;4967569;29;20031;-34
2023/11/02 11:53:28;;;;;;;1.20;0.98;;;17.10;58.00;;;;;;4966688;28;20054;-34
2023/11/02 11:56:01;;;;;;;1.35;1.13;;;17.20;58.10;;;;;;4967351;29;20039;-34
2023/11/02 11:58:43;;;;;;;1.55;1.13;;;17.10;57.90;;;;;;4967263;28;20148;-33
2023/11/02 12:01:17;;;;;;;1.42;1.00;;;17.00;57.90;;;;;;4967554;28;20039;-34
2023/11/02 12:03:44;;;;;;;1.40;1.20;;;16.90;57.90;;;;;;4967539;28;20661;-34
2023/11/02 12:06:12;;;;;;;1.05;0.90;;;16.90;58.00;;;;;;4964669;28;20043;-33
2023/11/02 12:08:51;;;;;;;1.13;0.77;;;17.00;57.90;;;;;;4999857;28;20173;-34
2023/11/02 12:11:24;;;;;;;1.20;1.00;;;17.10;57.80;;;;;;5022954;28;20026;-33
2023/11/02 12:14:00;;;;;;;1.55;1.23;;;17.10;57.70;;;;;;5022582;28;20025;-33
2023/11/02 12:16:33;;;;;;;1.85;1.10;;;17.10;57.80;;;;;;5022536;28;20069;-33
2023/11/02 12:18:59;;;;;;;1.52;1.00;;;17.00;57.80;;;;;;5022765;28;20104;-33
2023/11/02 12:21:25;;;;;;;1.10;0.90;;;16.90;57.80;;;;;;5031585;28;20083;-33
2023/11/02 12:23:52;;;;;;;1.15;0.98;;;16.90;57.80;;;;;;5103504;28;20032;-33
2023/11/02 12:26:22;;;;;;;1.30;1.00;;;17.00;57.80;;;;;;5099252;28;20047;-34
2023/11/02 12:28:49;;;;;;;1.25;1.13;;;17.10;57.80;;;;;;5089571;28;20043;-34
2023/11/02 12:31:27;;;;;;;1.15;0.90;;;17.10;57.70;;;;;;5090275;28;20032;-34
2023/11/02 12:33:53;;;;;;;2.50;1.00;;;17.00;57.60;;;;;;5090562;28;20031;-34
2023/11/02 12:36:19;;;;;;;1.35;1.20;;;17.00;58.30;;;;;;5096145;28;20059;-34
2023/11/02 12:38:48;;;;;;;1.07;0.97;;;16.90;57.70;;;;;;5095977;28;20040;-34
2023/11/02 12:41:27;;;;;;;2.00;1.27;;;17.00;57.80;;;;;;5087405;28;20344;-33
2023/11/02 12:43:59;;;;;;;1.25;1.05;;;17.10;57.60;;;;;;5098507;28;20044;-34
2023/11/02 12:46:25;;;;;;;1.20;1.10;;;17.10;57.60;;;;;;5093374;28;20067;-34
2023/11/02 12:48:53;;;;;;;1.67;1.00;;;17.10;57.60;;;;;;5096984;28;20050;-33
2023/11/02 12:51:23;;;;;;;1.10;1.00;;;17.00;57.60;;;;;;5102855;28;20123;-33
2023/11/02 12:53:51;;;;;;;1.30;1.05;;;16.90;57.60;;;;;;5095173;28;20024;-34
2023/11/02 12:56:22;;;;;;;0.90;0.90;;;17.00;57.60;;;;;;5100576;28;20038;-34
2023/11/02 12:59:00;;;;;;;1.20;0.90;;;17.10;57.70;;;;;;5096337;28;20024;-33
2023/11/02 13:01:54;;;;;;;1.45;1.30;;;17.10;57.50;;;;;;5088498;28;20036;-34
2023/11/02 13:04:26;;;;;;;0.90;0.80;;;17.10;57.40;;;;;;5102131;28;20058;-34
2023/11/02 13:06:53;;;;;;;1.15;0.85;;;17.00;57.40;;;;;;5096036;28;20028;-34